Shawano, Wisconsin
Current Conditions -  °F | °C
As of 2:55 AM on Wednesday 28 Jan 2015 (Local Time) from KEZS Reporting Station
Overcast Overcast  
Wind Chill: 25°   Ceiling: 2400
Heat Index: 25°   Visibility: 10mi
Dew Point: 18°   Wind: 0mph
Humidity: 76%   Direction: NA
Pressure: 30.23"   Gusts: NA
Location:  44.78°N, 88.61°W
Report Text: KEZS 280855Z AUTO 00000KT 10SM OVC024 M04/M08 A3023 RMK AO2 T10411078
Loading
Personal Weather Stations






























Interactive Weather Map New forecast layout! Learn more

10-Day Weather Forecast

Advertisements
Track Severe Weather on mobile